Time;durP1;ratioP1;P1;durP2;ratioP2;P2;SDS_P1;SDS_P2;PMS_P1;PMS_P2;Temp;Humidity;BMP_temperature;BMP_pressure;BME280_temperature;BME280_humidity;BME280_pressure;Samples;Min_cycle;Max_cycle;Signal;HPM_P1;HPM_P2
2022/09/02 00:00:45;;;;;;;0.00;0.00;;;16.20;99.90;;;;;;5050482;28;20170;-58
2022/09/02 00:03:10;;;;;;;0.00;0.00;;;16.10;99.90;;;;;;5050865;28;20734;-58
2022/09/02 00:05:36;;;;;;;0.00;0.00;;;16.10;99.90;;;;;;5050985;28;20228;-57
2022/09/02 00:08:03;;;;;;;0.00;0.00;;;16.00;99.90;;;;;;5054837;28;20189;-58
2022/09/02 00:10:29;;;;;;;0.00;0.00;;;16.00;99.90;;;;;;5054643;28;20181;-58
2022/09/02 00:12:55;;;;;;;0.00;0.00;;;16.00;99.90;;;;;;5054508;28;20183;-58
2022/09/02 00:15:21;;;;;;;0.00;0.00;;;15.90;99.90;;;;;;5055214;28;20568;-58
2022/09/02 00:17:46;;;;;;;0.00;0.00;;;15.90;99.90;;;;;;5054596;28;20181;-58
2022/09/02 00:20:12;;;;;;;0.00;0.00;;;15.80;99.90;;;;;;5054569;28;20185;-58
2022/09/02 00:22:38;;;;;;;0.00;0.00;;;15.80;99.90;;;;;;5054676;28;20557;-58
2022/09/02 00:25:05;;;;;;;0.00;0.00;;;15.80;99.90;;;;;;5054783;28;20178;-57
2022/09/02 00:27:30;;;;;;;0.00;0.00;;;15.80;99.90;;;;;;5054568;28;20192;-58
2022/09/02 00:29:56;;;;;;;0.00;0.00;;;15.70;99.90;;;;;;5054366;28;20185;-58
2022/09/02 00:32:21;;;;;;;0.00;0.00;;;15.70;99.90;;;;;;5054448;28;20545;-58
2022/09/02 00:34:47;;;;;;;0.00;0.00;;;15.70;99.90;;;;;;5054984;28;20182;-59
2022/09/02 00:37:13;;;;;;;0.00;0.00;;;15.60;99.90;;;;;;5054604;28;20181;-58
2022/09/02 00:39:39;;;;;;;0.00;0.00;;;15.60;99.90;;;;;;5054344;28;20193;-58
2022/09/02 00:42:05;;;;;;;0.00;0.00;;;15.60;99.90;;;;;;5053397;28;20213;-58
2022/09/02 00:44:32;;;;;;;0.00;0.00;;;15.60;99.90;;;;;;5054649;28;20213;-58
2022/09/02 00:46:58;;;;;;;0.00;0.00;;;15.60;99.90;;;;;;5054321;28;20188;-58
2022/09/02 00:49:31;;;;;;;0.00;0.00;;;15.50;99.90;;;;;;5053883;28;20181;-58
2022/09/02 00:52:02;;;;;;;0.00;0.00;;;15.50;99.90;;;;;;5054001;28;20247;-58
2022/09/02 00:54:31;;;;;;;0.00;0.00;;;15.50;99.90;;;;;;5054023;28;20204;-59
2022/09/02 00:56:59;;;;;;;0.00;0.00;;;15.40;99.90;;;;;;5053771;28;20177;-57
2022/09/02 00:59:45;;;;;;;0.00;0.00;;;15.40;99.90;;;;;;5054281;28;20185;-58
2022/09/02 01:02:12;;;;;;;0.00;0.00;;;15.40;99.90;;;;;;5053510;28;20229;-58
2022/09/02 01:04:38;;;;;;;0.10;0.10;;;15.40;99.90;;;;;;5053922;28;20208;-58
2022/09/02 01:07:05;;;;;;;0.00;0.00;;;15.40;99.90;;;;;;5053756;28;20178;-57
2022/09/02 01:09:32;;;;;;;0.00;0.00;;;15.40;99.90;;;;;;5053832;28;20748;-58
2022/09/02 01:12:01;;;;;;;0.03;0.03;;;15.40;99.90;;;;;;5053789;28;20588;-57
2022/09/02 01:14:28;;;;;;;0.00;0.00;;;15.40;99.90;;;;;;5054145;28;20189;-58
2022/09/02 01:16:58;;;;;;;0.00;0.00;;;15.40;99.90;;;;;;5053534;28;20239;-58
2022/09/02 01:19:35;;;;;;;0.00;0.00;;;15.50;99.90;;;;;;5051771;28;20257;-58
2022/09/02 01:22:01;;;;;;;0.00;0.00;;;15.40;99.90;;;;;;5052618;28;20223;-58
2022/09/02 01:24:30;;;;;;;0.00;0.00;;;15.30;99.90;;;;;;5053722;28;20185;-58
2022/09/02 01:26:57;;;;;;;0.00;0.00;;;15.30;99.90;;;;;;5052975;28;20197;-58
2022/09/02 01:29:24;;;;;;;0.00;0.00;;;15.30;99.90;;;;;;5047332;28;20165;-58
2022/09/02 01:31:50;;;;;;;0.00;0.00;;;15.30;99.90;;;;;;5053780;28;20189;-58
2022/09/02 01:34:16;;;;;;;0.00;0.00;;;15.30;99.90;;;;;;5052849;28;20227;-57
2022/09/02 01:36:42;;;;;;;0.00;0.00;;;15.30;99.90;;;;;;5053374;28;20180;-58
2022/09/02 01:39:10;;;;;;;0.00;0.00;;;15.20;99.90;;;;;;5052942;28;20182;-58
2022/09/02 01:41:36;;;;;;;0.00;0.00;;;15.20;99.90;;;;;;5052903;28;20205;-58
2022/09/02 01:44:02;;;;;;;0.00;0.00;;;15.20;99.90;;;;;;5053305;28;20192;-57
2022/09/02 01:46:28;;;;;;;0.00;0.00;;;15.20;99.90;;;;;;5053400;28;20177;-58
2022/09/02 01:48:53;;;;;;;0.00;0.00;;;15.20;99.90;;;;;;5052999;28;20185;-57
2022/09/02 01:51:20;;;;;;;0.00;0.00;;;15.20;99.90;;;;;;5053136;28;20181;-58
2022/09/02 01:53:47;;;;;;;0.00;0.00;;;15.10;99.90;;;;;;5053766;28;20579;-58
2022/09/02 01:56:13;;;;;;;0.00;0.00;;;15.10;99.90;;;;;;5053126;28;20235;-58
2022/09/02 01:58:39;;;;;;;0.00;0.00;;;15.00;99.90;;;;;;5053364;28;20170;-58
2022/09/02 02:01:05;;;;;;;0.00;0.00;;;15.00;99.90;;;;;;5053092;28;20220;-58
2022/09/02 02:03:31;;;;;;;0.00;0.00;;;15.00;99.90;;;;;;5053354;28;20238;-58
2022/09/02 02:05:56;;;;;;;0.00;0.00;;;14.90;99.90;;;;;;5053216;28;20209;-58
2022/09/02 02:08:23;;;;;;;0.00;0.00;;;14.90;99.90;;;;;;5053302;28;20785;-58
2022/09/02 02:10:48;;;;;;;0.00;0.00;;;14.80;99.90;;;;;;5051697;28;20174;-58
2022/09/02 02:13:15;;;;;;;0.00;0.00;;;14.80;99.90;;;;;;5052745;28;20530;-58
2022/09/02 02:15:42;;;;;;;0.00;0.00;;;14.70;99.90;;;;;;5052808;28;20174;-58
2022/09/02 02:18:09;;;;;;;0.00;0.00;;;14.70;99.90;;;;;;5052689;28;20185;-58
2022/09/02 02:20:35;;;;;;;0.00;0.00;;;14.60;99.90;;;;;;5052256;28;20177;-58
2022/09/02 02:23:01;;;;;;;0.17;0.17;;;14.60;99.90;;;;;;5052182;28;20702;-58
2022/09/02 02:25:27;;;;;;;0.00;0.00;;;14.60;99.90;;;;;;5052026;28;20200;-58
2022/09/02 02:27:52;;;;;;;0.00;0.00;;;14.60;99.90;;;;;;5051829;28;20656;-58
2022/09/02 02:30:18;;;;;;;0.00;0.00;;;14.60;99.90;;;;;;5051209;28;20647;-57
2022/09/02 02:32:46;;;;;;;0.00;0.00;;;14.60;99.90;;;;;;5051742;28;20287;-58
2022/09/02 02:35:13;;;;;;;0.00;0.00;;;14.60;99.90;;;;;;5052631;28;20196;-57
2022/09/02 02:37:39;;;;;;;0.00;0.00;;;14.50;99.90;;;;;;5052151;28;20287;-57
2022/09/02 02:40:06;;;;;;;0.00;0.00;;;14.50;99.90;;;;;;5051259;28;20217;-57
2022/09/02 02:42:32;;;;;;;0.00;0.00;;;14.50;99.90;;;;;;5052287;28;20220;-58
2022/09/02 02:44:57;;;;;;;0.00;0.00;;;14.50;99.90;;;;;;5052121;28;20181;-57
2022/09/02 02:47:23;;;;;;;0.00;0.00;;;14.50;99.90;;;;;;5051736;28;20181;-58
2022/09/02 02:49:49;;;;;;;0.00;0.00;;;14.40;99.90;;;;;;5051548;28;20629;-58
2022/09/02 02:52:15;;;;;;;0.00;0.00;;;14.40;99.90;;;;;;5051951;28;20220;-57
2022/09/02 02:54:41;;;;;;;0.00;0.00;;;14.30;99.90;;;;;;5051894;28;20215;-58
2022/09/02 02:57:08;;;;;;;0.00;0.00;;;14.30;99.90;;;;;;5051688;28;20264;-58
2022/09/02 02:59:35;;;;;;;0.00;0.00;;;14.30;99.90;;;;;;5051183;28;20173;-58
2022/09/02 03:02:01;;;;;;;0.00;0.00;;;14.30;99.90;;;;;;5051183;28;20221;-58
2022/09/02 03:04:26;;;;;;;0.00;0.00;;;14.20;99.90;;;;;;5051585;28;20178;-58
2022/09/02 03:06:52;;;;;;;0.00;0.00;;;14.20;99.90;;;;;;5051063;28;20652;-59
2022/09/02 03:09:19;;;;;;;0.00;0.00;;;14.20;99.90;;;;;;5051241;28;20586;-58
2022/09/02 03:11:45;;;;;;;0.00;0.00;;;14.10;99.90;;;;;;5051531;28;20520;-58
2022/09/02 03:14:11;;;;;;;0.00;0.00;;;14.10;99.90;;;;;;5051330;28;20281;-58
2022/09/02 03:16:36;;;;;;;0.00;0.00;;;14.10;99.90;;;;;;5051459;28;20261;-57
2022/09/02 03:19:03;;;;;;;0.00;0.00;;;14.10;99.90;;;;;;5051464;28;20181;-57
2022/09/02 03:21:28;;;;;;;0.00;0.00;;;14.10;99.90;;;;;;5051434;28;20241;-58
2022/09/02 03:23:54;;;;;;;0.00;0.00;;;14.10;99.90;;;;;;5050743;28;20251;-57
2022/09/02 03:26:24;;;;;;;0.00;0.00;;;14.00;99.90;;;;;;5051166;28;20659;-57
2022/09/02 03:28:52;;;;;;;0.00;0.00;;;14.00;99.90;;;;;;5050936;28;20181;-58
2022/09/02 03:31:20;;;;;;;0.00;0.00;;;14.00;99.90;;;;;;5050871;28;20189;-58
2022/09/02 03:33:46;;;;;;;0.00;0.00;;;13.90;99.90;;;;;;5051110;28;20655;-57
2022/09/02 03:36:20;;;;;;;0.08;0.08;;;13.90;99.90;;;;;;5051357;28;20283;-58
2022/09/02 03:38:46;;;;;;;0.00;0.00;;;13.90;99.90;;;;;;5050733;28;20268;-57
2022/09/02 03:41:12;;;;;;;0.00;0.00;;;13.80;99.90;;;;;;5050691;28;20262;-57
2022/09/02 03:43:37;;;;;;;0.00;0.00;;;13.80;99.90;;;;;;5051190;28;20264;-57
2022/09/02 03:46:04;;;;;;;0.00;0.00;;;13.70;99.90;;;;;;5051208;28;20181;-57
2022/09/02 03:48:29;;;;;;;0.00;0.00;;;13.70;99.90;;;;;;5051079;28;20183;-58
2022/09/02 03:50:55;;;;;;;0.00;0.00;;;13.60;99.90;;;;;;5050893;28;20181;-58
2022/09/02 03:53:20;;;;;;;0.00;0.00;;;13.60;99.90;;;;;;5049868;28;20280;-58
2022/09/02 03:55:46;;;;;;;0.00;0.00;;;13.50;99.90;;;;;;5049782;28;20636;-59
2022/09/02 03:58:12;;;;;;;0.00;0.00;;;13.50;99.90;;;;;;5049934;28;20614;-58
2022/09/02 04:00:38;;;;;;;0.00;0.00;;;13.50;99.90;;;;;;5049982;28;20637;-59
2022/09/02 04:03:04;;;;;;;0.00;0.00;;;13.50;99.90;;;;;;5051274;28;20242;-59
2022/09/02 04:05:31;;;;;;;0.00;0.00;;;13.40;99.90;;;;;;5050687;28;20197;-59
2022/09/02 04:07:56;;;;;;;0.00;0.00;;;13.40;99.90;;;;;;5050589;28;20696;-57
2022/09/02 04:10:22;;;;;;;0.00;0.00;;;13.40;99.90;;;;;;5050686;28;20687;-57
2022/09/02 04:12:49;;;;;;;0.00;0.00;;;13.40;99.90;;;;;;5051104;28;20593;-57
2022/09/02 04:15:15;;;;;;;0.00;0.00;;;13.40;99.90;;;;;;5050716;28;20659;-59
2022/09/02 04:17:41;;;;;;;0.00;0.00;;;13.40;99.90;;;;;;5050963;28;20268;-57
2022/09/02 04:20:09;;;;;;;0.00;0.00;;;13.40;99.90;;;;;;5050850;28;20184;-57
2022/09/02 04:22:35;;;;;;;0.00;0.00;;;13.40;99.90;;;;;;5050234;28;20292;-58
2022/09/02 04:25:01;;;;;;;0.00;0.00;;;13.40;99.90;;;;;;5050851;28;20180;-57
2022/09/02 04:27:26;;;;;;;0.00;0.00;;;13.30;99.90;;;;;;5050046;28;20192;-57
2022/09/02 04:29:52;;;;;;;0.00;0.00;;;13.30;99.90;;;;;;5050762;28;20193;-57
2022/09/02 04:32:18;;;;;;;0.00;0.00;;;13.20;99.90;;;;;;5050934;28;20184;-58
2022/09/02 04:34:44;;;;;;;0.00;0.00;;;13.20;99.90;;;;;;5048698;28;20569;-57
2022/09/02 04:37:12;;;;;;;0.00;0.00;;;13.20;99.90;;;;;;5050371;28;20182;-60
2022/09/02 04:39:38;;;;;;;0.00;0.00;;;13.30;99.90;;;;;;5050844;28;20174;-58
2022/09/02 04:42:03;;;;;;;0.00;0.00;;;13.30;99.90;;;;;;5050761;28;20216;-61
2022/09/02 04:44:29;;;;;;;0.00;0.00;;;13.20;99.90;;;;;;5050558;28;20209;-60
2022/09/02 04:46:54;;;;;;;0.00;0.00;;;13.20;99.90;;;;;;5049397;28;20189;-60
2022/09/02 04:49:20;;;;;;;0.00;0.00;;;13.20;99.90;;;;;;5050317;28;20181;-60
2022/09/02 04:51:46;;;;;;;0.00;0.00;;;13.20;99.90;;;;;;5050046;28;20594;-60
2022/09/02 04:54:11;;;;;;;0.00;0.00;;;13.20;99.90;;;;;;5052750;28;20276;-60
2022/09/02 04:56:37;;;;;;;0.00;0.00;;;13.20;99.90;;;;;;5054043;28;20208;-60
2022/09/02 04:59:03;;;;;;;0.00;0.00;;;13.20;99.90;;;;;;5053503;28;20546;-61
2022/09/02 05:01:31;;;;;;;0.00;0.00;;;13.20;99.90;;;;;;5054276;28;20233;-61
2022/09/02 05:03:58;;;;;;;0.00;0.00;;;13.20;99.90;;;;;;5054274;28;20580;-60
2022/09/02 05:06:26;;;;;;;0.00;0.00;;;13.20;99.90;;;;;;5054723;28;20177;-60
2022/09/02 05:08:56;;;;;;;0.00;0.00;;;13.20;99.90;;;;;;5053822;28;20243;-60
2022/09/02 05:11:27;;;;;;;0.00;0.00;;;13.20;99.90;;;;;;5054220;28;20260;-60
2022/09/02 05:13:55;;;;;;;0.00;0.00;;;13.20;99.90;;;;;;5054309;28;20177;-60
2022/09/02 05:16:24;;;;;;;0.00;0.00;;;13.30;99.90;;;;;;5054231;28;20285;-60
2022/09/02 05:18:51;;;;;;;0.00;0.00;;;13.30;99.90;;;;;;5054035;28;20671;-60
2022/09/02 05:21:17;;;;;;;0.00;0.00;;;13.40;99.90;;;;;;5053926;28;20245;-60
2022/09/02 05:23:43;;;;;;;0.00;0.00;;;13.40;99.90;;;;;;5052760;28;20607;-60
2022/09/02 05:26:11;;;;;;;0.00;0.00;;;13.40;99.90;;;;;;5054421;28;20645;-60
2022/09/02 05:28:38;;;;;;;0.00;0.00;;;13.50;99.90;;;;;;5054285;28;20648;-60
2022/09/02 05:31:11;;;;;;;0.00;0.00;;;13.60;99.90;;;;;;5054332;28;20178;-60
2022/09/02 05:33:39;;;;;;;0.00;0.00;;;13.70;99.90;;;;;;5054210;28;20181;-60
2022/09/02 05:36:07;;;;;;;0.00;0.00;;;13.80;99.90;;;;;;5054225;28;20166;-60
2022/09/02 05:38:33;;;;;;;0.00;0.00;;;13.80;99.90;;;;;;5053977;28;20185;-60
2022/09/02 05:41:06;;;;;;;0.00;0.00;;;13.90;99.90;;;;;;5053905;28;20180;-60
2022/09/02 05:43:37;;;;;;;0.00;0.00;;;14.00;99.90;;;;;;5054051;28;20178;-60
2022/09/02 05:46:06;;;;;;;0.00;0.00;;;14.20;99.90;;;;;;5054069;28;20188;-60
2022/09/02 05:51:17;;;;;;;0.00;0.00;;;14.50;99.90;;;;;;5053876;28;20278;-60
2022/09/02 05:53:43;;;;;;;0.00;0.00;;;14.70;99.90;;;;;;5053871;28;20688;-60
2022/09/02 05:56:08;;;;;;;0.00;0.00;;;15.00;99.90;;;;;;5053930;28;20193;-60
2022/09/02 05:58:34;;;;;;;0.00;0.00;;;15.40;99.90;;;;;;5053578;28;20170;-60
2022/09/02 06:01:05;;;;;;;0.00;0.00;;;15.90;99.90;;;;;;5053632;28;20519;-60
2022/09/02 06:03:30;;;;;;;0.00;0.00;;;16.40;99.90;;;;;;5053439;28;20190;-60
2022/09/02 06:05:57;;;;;;;0.00;0.00;;;17.00;99.90;;;;;;5053538;28;20233;-60
2022/09/02 06:08:24;;;;;;;0.00;0.00;;;17.50;99.90;;;;;;5053663;28;20177;-60
2022/09/02 06:10:50;;;;;;;0.00;0.00;;;18.00;99.90;;;;;;5053484;28;20200;-60
2022/09/02 06:13:21;;;;;;;0.00;0.00;;;18.40;99.90;;;;;;5053549;28;20177;-60
2022/09/02 06:15:47;;;;;;;0.00;0.00;;;18.70;99.90;;;;;;5053438;28;20209;-60
2022/09/02 06:18:13;;;;;;;0.00;0.00;;;19.10;99.20;;;;;;5053244;28;20656;-60
2022/09/02 06:20:40;;;;;;;0.00;0.00;;;19.60;98.30;;;;;;5053296;28;20268;-61
2022/09/02 06:23:06;;;;;;;0.00;0.00;;;20.10;97.70;;;;;;5053225;28;20209;-60
2022/09/02 06:25:38;;;;;;;0.00;0.00;;;20.60;96.20;;;;;;5053137;28;20174;-60
2022/09/02 06:28:04;;;;;;;0.00;0.00;;;20.90;95.10;;;;;;5053336;28;20213;-60
2022/09/02 06:30:30;;;;;;;0.00;0.00;;;21.20;93.70;;;;;;5053045;28;20204;-60
2022/09/02 06:32:55;;;;;;;0.00;0.00;;;21.30;93.40;;;;;;5053088;28;20189;-60
2022/09/02 06:35:21;;;;;;;0.00;0.00;;;21.50;93.00;;;;;;5053220;28;20181;-60
2022/09/02 06:37:47;;;;;;;0.00;0.00;;;21.80;92.20;;;;;;5052918;28;20708;-60
2022/09/02 06:40:13;;;;;;;0.00;0.00;;;22.20;91.20;;;;;;5052939;28;20264;-60
2022/09/02 06:42:39;;;;;;;0.00;0.00;;;22.50;90.60;;;;;;5052803;28;20201;-60
2022/09/02 06:45:05;;;;;;;0.00;0.00;;;22.90;89.70;;;;;;5052911;28;20177;-60
2022/09/02 06:47:31;;;;;;;0.00;0.00;;;23.20;88.20;;;;;;5052729;28;20185;-61
2022/09/02 06:49:57;;;;;;;0.00;0.00;;;23.40;85.20;;;;;;5052756;28;20640;-60
2022/09/02 06:52:23;;;;;;;0.00;0.00;;;23.60;84.10;;;;;;5052703;28;20181;-61
2022/09/02 06:54:49;;;;;;;0.00;0.00;;;23.60;82.40;;;;;;5052467;28;20180;-60
2022/09/02 06:57:15;;;;;;;0.00;0.00;;;23.80;82.00;;;;;;5052772;28;20205;-60
2022/09/02 06:59:41;;;;;;;0.00;0.00;;;24.00;80.20;;;;;;5052507;28;20232;-61
2022/09/02 07:02:07;;;;;;;0.00;0.00;;;24.30;79.20;;;;;;5052470;28;20237;-61
2022/09/02 07:07:16;;;;;;;0.00;0.00;;;24.70;77.50;;;;;;5052559;28;20565;-61
2022/09/02 07:09:43;;;;;;;0.00;0.00;;;24.90;75.20;;;;;;5052170;28;20178;-61
2022/09/02 07:12:08;;;;;;;0.00;0.00;;;25.20;74.10;;;;;;5052318;28;20169;-61
2022/09/02 07:14:42;;;;;;;0.00;0.00;;;25.50;74.00;;;;;;5052294;28;20513;-61
2022/09/02 07:17:10;;;;;;;0.00;0.00;;;25.80;71.80;;;;;;5051690;28;20182;-61
2022/09/02 07:19:36;;;;;;;0.00;0.00;;;26.00;71.20;;;;;;5052178;28;20617;-61
2022/09/02 07:22:04;;;;;;;0.00;0.00;;;26.30;69.60;;;;;;5052258;28;20260;-61
2022/09/02 07:24:29;;;;;;;0.00;0.00;;;26.50;68.20;;;;;;5051695;28;20177;-61
2022/09/02 07:26:55;;;;;;;0.00;0.00;;;26.70;66.60;;;;;;5052021;28;20184;-61
2022/09/02 07:29:20;;;;;;;0.00;0.00;;;26.80;67.00;;;;;;5050948;28;20235;-61
2022/09/02 07:31:47;;;;;;;0.00;0.00;;;27.00;66.40;;;;;;5052090;28;20181;-61
2022/09/02 07:34:14;;;;;;;0.00;0.00;;;27.30;66.00;;;;;;5052120;28;20178;-61
2022/09/02 07:36:41;;;;;;;0.00;0.00;;;27.50;62.60;;;;;;5052036;28;20204;-61
2022/09/02 07:39:09;;;;;;;0.00;0.00;;;27.50;61.60;;;;;;5052021;28;20165;-61
2022/09/02 07:41:35;;;;;;;0.00;0.00;;;27.40;60.90;;;;;;5051894;28;20251;-61
2022/09/02 07:44:02;;;;;;;0.00;0.00;;;27.50;60.50;;;;;;5051802;28;20185;-61
2022/09/02 07:46:30;;;;;;;0.00;0.00;;;27.60;59.50;;;;;;5051761;28;20203;-62
2022/09/02 07:48:56;;;;;;;0.00;0.00;;;27.60;59.80;;;;;;5051876;28;20181;-61
2022/09/02 07:51:22;;;;;;;0.00;0.00;;;27.80;60.30;;;;;;5051748;28;20185;-61
2022/09/02 07:53:48;;;;;;;0.00;0.00;;;27.90;59.10;;;;;;5051534;28;20181;-61
2022/09/02 07:56:14;;;;;;;0.13;0.13;;;28.00;58.60;;;;;;5051800;28;20193;-61
2022/09/02 07:58:41;;;;;;;0.00;0.00;;;28.20;58.30;;;;;;5051695;28;20174;-61
2022/09/02 08:01:07;;;;;;;0.00;0.00;;;28.20;57.00;;;;;;5051552;28;20277;-61
2022/09/02 08:03:33;;;;;;;0.00;0.00;;;28.10;57.50;;;;;;5051563;28;20296;-61
2022/09/02 08:05:59;;;;;;;0.00;0.00;;;28.40;57.50;;;;;;5051572;28;20684;-61
2022/09/02 08:08:26;;;;;;;0.10;0.10;;;28.80;55.70;;;;;;5051596;28;20188;-61
2022/09/02 08:10:53;;;;;;;0.00;0.00;;;28.80;55.10;;;;;;5051476;28;20181;-61
2022/09/02 08:13:19;;;;;;;0.00;0.00;;;28.80;56.00;;;;;;5051602;28;20260;-61
2022/09/02 08:15:45;;;;;;;0.00;0.00;;;28.90;55.10;;;;;;5051484;28;20640;-61
2022/09/02 08:18:11;;;;;;;0.00;0.00;;;28.90;55.30;;;;;;5051324;28;20629;-61
2022/09/02 08:20:37;;;;;;;0.00;0.00;;;29.00;54.50;;;;;;5051499;28;20201;-62
2022/09/02 08:23:05;;;;;;;0.00;0.00;;;28.90;53.90;;;;;;5051610;28;20260;-61
2022/09/02 08:25:31;;;;;;;0.00;0.00;;;28.70;54.30;;;;;;5051300;28;20173;-62
2022/09/02 08:27:57;;;;;;;0.00;0.00;;;28.70;54.40;;;;;;5052045;28;20170;-62
2022/09/02 08:30:23;;;;;;;0.00;0.00;;;28.60;53.50;;;;;;5054234;28;20533;-62
2022/09/02 08:32:48;;;;;;;0.00;0.00;;;28.40;53.50;;;;;;5055217;28;20173;-62
2022/09/02 08:35:14;;;;;;;0.00;0.00;;;28.00;54.40;;;;;;5055418;28;20192;-61
2022/09/02 08:37:39;;;;;;;0.00;0.00;;;28.10;56.10;;;;;;5055208;28;20184;-61
2022/09/02 08:40:10;;;;;;;0.00;0.00;;;28.30;55.90;;;;;;5055412;28;20621;-61
2022/09/02 08:42:39;;;;;;;0.00;0.00;;;28.70;55.30;;;;;;5055134;28;20217;-61
2022/09/02 08:45:17;;;;;;;0.00;0.00;;;28.80;54.10;;;;;;5055191;28;20651;-61
2022/09/02 08:47:48;;;;;;;0.00;0.00;;;28.70;53.50;;;;;;5055242;28;20201;-62
2022/09/02 08:50:16;;;;;;;0.00;0.00;;;28.20;54.00;;;;;;5055042;28;20256;-61
2022/09/02 08:52:57;;;;;;;0.00;0.00;;;27.90;54.60;;;;;;5054845;28;20197;-61
2022/09/02 08:55:44;;;;;;;0.00;0.00;;;27.50;54.60;;;;;;5055192;28;20177;-61
2022/09/02 08:58:13;;;;;;;0.00;0.00;;;27.40;56.10;;;;;;5054857;28;20173;-62
2022/09/02 09:00:42;;;;;;;0.00;0.00;;;27.30;54.90;;;;;;5054712;28;20566;-62
2022/09/02 09:03:29;;;;;;;0.00;0.00;;;27.10;55.30;;;;;;5054561;28;20770;-62
2022/09/02 09:06:22;;;;;;;0.00;0.00;;;26.90;55.10;;;;;;5053572;28;20266;-62
2022/09/02 09:09:08;;;;;;;0.00;0.00;;;26.80;55.40;;;;;;5054571;28;20181;-62
2022/09/02 09:11:56;;;;;;;0.00;0.00;;;26.70;56.00;;;;;;5054790;28;20173;-62
2022/09/02 09:14:36;;;;;;;0.00;0.00;;;26.80;55.70;;;;;;5054550;28;20725;-62
2022/09/02 09:17:22;;;;;;;0.00;0.00;;;27.10;56.10;;;;;;5054610;28;20174;-61
2022/09/02 09:19:52;;;;;;;0.00;0.00;;;27.60;56.00;;;;;;5054471;28;20231;-63
2022/09/02 09:22:20;;;;;;;0.00;0.00;;;27.90;54.60;;;;;;5054475;28;20224;-62
2022/09/02 09:24:48;;;;;;;0.00;0.00;;;28.00;53.90;;;;;;5054357;28;20169;-62
2022/09/02 09:27:20;;;;;;;0.00;0.00;;;28.00;53.10;;;;;;5054390;28;20180;-62
2022/09/02 09:29:47;;;;;;;0.00;0.00;;;28.10;53.90;;;;;;5054666;28;20256;-62
2022/09/02 09:32:29;;;;;;;0.00;0.00;;;28.40;53.40;;;;;;5054295;28;20269;-62
2022/09/02 09:35:01;;;;;;;0.00;0.00;;;28.50;50.40;;;;;;5054304;28;20161;-62
2022/09/02 09:37:35;;;;;;;0.00;0.00;;;27.90;49.70;;;;;;5054226;28;20173;-62
2022/09/02 09:40:22;;;;;;;0.00;0.00;;;27.60;50.20;;;;;;5053502;28;20168;-62
2022/09/02 09:43:11;;;;;;;0.00;0.00;;;27.60;51.50;;;;;;5053812;28;20236;-62
2022/09/02 09:45:41;;;;;;;0.00;0.00;;;27.60;51.00;;;;;;5054052;28;20204;-62
2022/09/02 09:48:15;;;;;;;0.00;0.00;;;27.60;50.40;;;;;;5054055;28;20712;-62
2022/09/02 09:50:45;;;;;;;0.00;0.00;;;27.60;52.80;;;;;;5054041;28;20179;-62
2022/09/02 09:53:19;;;;;;;0.00;0.00;;;27.60;49.30;;;;;;5053747;28;20592;-62
2022/09/02 09:56:04;;;;;;;0.00;0.00;;;27.80;50.60;;;;;;5053938;28;20185;-62
2022/09/02 09:58:38;;;;;;;0.00;0.00;;;28.00;50.20;;;;;;5053666;28;20170;-62
2022/09/02 10:01:31;;;;;;;0.00;0.00;;;28.20;49.10;;;;;;5053629;28;20173;-63
2022/09/02 10:04:32;;;;;;;0.00;0.00;;;28.30;49.20;;;;;;5053651;28;20183;-62
2022/09/02 10:06:57;;;;;;;0.00;0.00;;;28.50;48.10;;;;;;5053443;28;20242;-61
2022/09/02 10:09:35;;;;;;;0.00;0.00;;;28.60;48.40;;;;;;5053653;28;20265;-61
2022/09/02 10:12:10;;;;;;;0.00;0.00;;;28.90;49.60;;;;;;5053605;28;20177;-62
2022/09/02 10:14:43;;;;;;;0.00;0.00;;;29.10;48.00;;;;;;5053460;28;20636;-62
2022/09/02 10:17:32;;;;;;;0.00;0.00;;;28.90;47.10;;;;;;5053386;28;20181;-61
2022/09/02 10:20:21;;;;;;;0.00;0.00;;;29.00;49.10;;;;;;5053414;28;20692;-61
2022/09/02 10:22:57;;;;;;;0.00;0.00;;;29.20;47.90;;;;;;5053116;28;20312;-62
2022/09/02 10:25:44;;;;;;;0.00;0.00;;;29.30;47.20;;;;;;5053289;28;20184;-61
2022/09/02 10:28:25;;;;;;;0.00;0.00;;;29.40;44.50;;;;;;5053235;28;20231;-61
2022/09/02 10:30:56;;;;;;;0.00;0.00;;;29.20;44.30;;;;;;5052988;28;20177;-62
2022/09/02 10:33:36;;;;;;;0.00;0.00;;;29.10;45.50;;;;;;5053222;28;20188;-62
2022/09/02 10:36:13;;;;;;;0.00;0.00;;;29.00;45.70;;;;;;5053310;28;20231;-62
2022/09/02 10:38:45;;;;;;;0.00;0.00;;;28.90;45.40;;;;;;5053088;28;20231;-62
2022/09/02 10:41:26;;;;;;;0.00;0.00;;;28.90;45.20;;;;;;5052852;28;20182;-62
2022/09/02 10:44:06;;;;;;;0.00;0.00;;;29.10;45.40;;;;;;5052891;28;20185;-62
2022/09/02 10:47:06;;;;;;;0.00;0.00;;;29.00;44.60;;;;;;5052937;28;20177;-63
2022/09/02 10:49:45;;;;;;;0.00;0.00;;;28.80;45.20;;;;;;5047580;28;20189;-63
2022/09/02 10:52:29;;;;;;;0.00;0.00;;;28.70;45.50;;;;;;5051955;28;20181;-62
2022/09/02 10:55:08;;;;;;;0.00;0.00;;;28.70;46.00;;;;;;5052795;28;20173;-62
2022/09/02 10:57:58;;;;;;;0.00;0.00;;;28.60;45.30;;;;;;5052836;28;20173;-63
2022/09/02 11:00:27;;;;;;;0.00;0.00;;;28.80;45.80;;;;;;5032938;28;20182;-62
2022/09/02 11:03:16;;;;;;;0.00;0.00;;;29.00;44.40;;;;;;5032515;28;20245;-62
2022/09/02 11:05:55;;;;;;;0.00;0.00;;;29.30;44.40;;;;;;5032767;28;20332;-63
2022/09/02 11:08:39;;;;;;;0.00;0.00;;;29.50;44.70;;;;;;5032682;28;20182;-63
2022/09/02 11:11:14;;;;;;;0.00;0.00;;;29.50;42.90;;;;;;5032566;28;20278;-63
2022/09/02 11:13:59;;;;;;;0.00;0.00;;;29.40;44.30;;;;;;5032600;28;20190;-62
2022/09/02 11:16:47;;;;;;;0.00;0.00;;;29.10;42.80;;;;;;5032524;28;20171;-62
2022/09/02 11:19:18;;;;;;;0.00;0.00;;;29.00;43.00;;;;;;5032529;28;20208;-63
2022/09/02 11:22:08;;;;;;;0.00;0.00;;;29.00;44.40;;;;;;5032242;28;20218;-62
2022/09/02 11:24:54;;;;;;;0.00;0.00;;;28.80;43.20;;;;;;5030977;28;20178;-63
2022/09/02 11:27:42;;;;;;;0.00;0.00;;;28.80;43.50;;;;;;5032375;28;20170;-62
2022/09/02 11:30:15;;;;;;;0.00;0.00;;;28.70;43.60;;;;;;5032083;28;20192;-62
2022/09/02 11:32:49;;;;;;;0.00;0.00;;;28.50;44.20;;;;;;5032288;28;20174;-62
2022/09/02 11:35:38;;;;;;;0.00;0.00;;;28.40;44.60;;;;;;5032382;28;20197;-63
2022/09/02 11:38:31;;;;;;;0.00;0.00;;;28.60;45.10;;;;;;5032243;28;20170;-62
2022/09/02 11:40:56;;;;;;;0.00;0.00;;;28.80;43.00;;;;;;5030826;28;20185;-63
2022/09/02 11:43:30;;;;;;;0.00;0.00;;;28.70;42.50;;;;;;5032121;28;20213;-62
2022/09/02 11:46:21;;;;;;;0.00;0.00;;;28.40;42.50;;;;;;5032076;28;20174;-62
2022/09/02 11:49:01;;;;;;;0.00;0.00;;;28.40;43.50;;;;;;5031850;28;20248;-62
2022/09/02 11:51:39;;;;;;;0.00;0.00;;;28.40;44.00;;;;;;5036100;28;20189;-63
2022/09/02 11:54:06;;;;;;;0.00;0.00;;;28.50;42.80;;;;;;5051925;28;20247;-62
2022/09/02 11:56:38;;;;;;;0.00;0.00;;;28.70;42.40;;;;;;5051729;28;20173;-63
2022/09/02 11:59:05;;;;;;;0.00;0.00;;;28.50;41.40;;;;;;5051749;28;20178;-62
2022/09/02 12:01:34;;;;;;;0.00;0.00;;;28.40;41.60;;;;;;5051193;28;20718;-63
2022/09/02 12:04:05;;;;;;;0.00;0.00;;;28.40;42.50;;;;;;5051715;28;20189;-62
2022/09/02 12:06:31;;;;;;;0.00;0.00;;;28.50;42.50;;;;;;5051613;28;20172;-62
2022/09/02 12:09:04;;;;;;;0.00;0.00;;;28.60;42.90;;;;;;5051665;28;20192;-62
2022/09/02 12:11:46;;;;;;;0.00;0.00;;;28.70;42.10;;;;;;5051606;28;20651;-62
2022/09/02 12:14:20;;;;;;;0.00;0.00;;;28.70;40.90;;;;;;5051498;28;20185;-62
2022/09/02 12:17:03;;;;;;;0.00;0.00;;;28.60;41.40;;;;;;5051640;28;20179;-62
2022/09/02 12:19:41;;;;;;;0.00;0.00;;;28.60;41.60;;;;;;5051549;28;20637;-62
2022/09/02 12:22:15;;;;;;;0.00;0.00;;;28.60;41.90;;;;;;5051559;28;20240;-62
2022/09/02 12:25:25;;;;;;;0.00;0.00;;;28.60;42.90;;;;;;5051462;28;20569;-62
2022/09/02 12:28:25;;;;;;;0.00;0.00;;;28.60;42.70;;;;;;5050720;28;20192;-62
2022/09/02 12:30:54;;;;;;;0.00;0.00;;;28.70;41.80;;;;;;5051336;28;20506;-62
2022/09/02 12:33:34;;;;;;;0.00;0.00;;;28.80;41.50;;;;;;5051564;28;20171;-62
2022/09/02 12:36:03;;;;;;;0.00;0.00;;;28.80;42.00;;;;;;5051436;28;20181;-62
2022/09/02 12:38:32;;;;;;;0.00;0.00;;;28.70;42.70;;;;;;5051323;28;20204;-63
2022/09/02 12:41:05;;;;;;;0.00;0.00;;;28.80;42.20;;;;;;5051512;28;20170;-63
2022/09/02 12:43:34;;;;;;;0.00;0.00;;;28.90;42.30;;;;;;5051071;28;20753;-63
2022/09/02 12:46:11;;;;;;;0.00;0.00;;;28.70;43.10;;;;;;5051391;28;20261;-63
2022/09/02 12:48:43;;;;;;;0.00;0.00;;;28.40;41.80;;;;;;5051281;28;20243;-63
2022/09/02 12:51:09;;;;;;;0.00;0.00;;;28.30;42.60;;;;;;5051096;28;20177;-62
2022/09/02 12:53:41;;;;;;;0.00;0.00;;;28.30;42.00;;;;;;5051157;28;20174;-63
2022/09/02 12:56:23;;;;;;;0.00;0.00;;;28.20;42.20;;;;;;5051260;28;20177;-62
2022/09/02 12:58:54;;;;;;;0.00;0.00;;;28.20;42.70;;;;;;5050992;28;20224;-63
2022/09/02 13:01:51;;;;;;;0.00;0.00;;;28.20;42.30;;;;;;5051030;28;20176;-63
2022/09/02 13:04:25;;;;;;;0.00;0.00;;;28.30;41.60;;;;;;5051102;28;20213;-63
2022/09/02 13:07:45;;;;;;;0.00;0.00;;;28.30;41.10;;;;;;5051008;28;20561;-62
2022/09/02 13:10:24;;;;;;;0.00;0.00;;;28.30;41.80;;;;;;5048820;28;20178;-62